createdAt,value
2023-04-26T00:00:11.955Z,139.93
2023-04-26T00:00:57.586Z,139.93
2023-04-26T00:01:42.379Z,139.93
2023-04-26T00:02:27.207Z,139.93
2023-04-26T00:03:12.573Z,139.93
2023-04-26T00:03:57.325Z,89.97
2023-04-26T00:04:42.824Z,89.97
2023-04-26T00:05:27.298Z,66.54
2023-04-26T00:06:13.082Z,69.88
2023-04-26T00:06:57.427Z,63.73
2023-04-26T00:07:42.375Z,92.89
2023-04-26T00:08:27.628Z,116.20
2023-04-26T00:09:12.653Z,140.30
2023-04-26T00:09:57.744Z,108.57
2023-04-26T00:10:42.499Z,94.40
2023-04-26T00:11:27.548Z,95.34
2023-04-26T00:12:12.564Z,89.97
2023-04-26T00:12:57.674Z,129.96
2023-04-26T00:13:42.783Z,146.95
2023-04-26T00:14:27.877Z,137.95
2023-04-26T00:15:14.417Z,137.95
2023-04-26T00:15:58.407Z,137.95
2023-04-26T00:16:43.985Z,137.95
2023-04-26T00:17:27.937Z,96.97
2023-04-26T00:18:13.135Z,129.96
2023-04-26T00:18:58.554Z,62.98
2023-04-26T00:19:43.897Z,62.98
2023-04-26T00:20:28.435Z,62.98
2023-04-26T00:21:13.042Z,94.94
2023-04-26T00:21:58.245Z,131.95
2023-04-26T00:22:43.231Z,141.95
2023-04-26T00:23:28.370Z,134.96
2023-04-26T00:24:13.422Z,134.96
2023-04-26T00:24:58.465Z,134.96
2023-04-26T00:25:43.357Z,141.96
2023-04-26T00:26:29.093Z,153.96
2023-04-26T00:27:13.702Z,149.96
2023-04-26T00:27:59.722Z,149.96
2023-04-26T00:28:43.963Z,149.96
2023-04-26T00:29:28.927Z,149.96
2023-04-26T00:30:13.568Z,70.98
2023-04-26T00:30:58.511Z,97.97
2023-04-26T00:31:43.708Z,126.96
2023-04-26T00:32:28.970Z,132.96
2023-04-26T00:33:13.782Z,121.97
2023-04-26T00:33:59.054Z,100.97
2023-04-26T00:34:44.270Z,132.96
2023-04-26T00:35:29.413Z,139.96
2023-04-26T00:36:14.517Z,129.96
2023-04-26T00:37:00.047Z,129.96
2023-04-26T00:37:44.732Z,129.96
2023-04-26T00:38:29.822Z,129.96
2023-04-26T00:39:16.488Z,129.96
2023-04-26T00:39:59.540Z,129.96
2023-04-26T00:40:44.666Z,78.53
2023-04-26T00:41:29.604Z,94.15
2023-04-26T00:42:14.849Z,71.84
2023-04-26T00:42:59.919Z,91.90
2023-04-26T00:43:44.786Z,86.88
2023-04-26T00:44:31.270Z,86.88
2023-04-26T00:45:15.166Z,86.88
2023-04-26T00:46:00.549Z,86.88
2023-04-26T00:46:45.450Z,86.88
2023-04-26T00:47:30.502Z,86.88
2023-04-26T00:48:15.326Z,86.88
2023-04-26T00:49:00.685Z,86.88
2023-04-26T00:49:45.897Z,86.88
2023-04-26T00:50:30.591Z,86.88
2023-04-26T00:51:16.083Z,86.88
2023-04-26T00:52:00.948Z,86.88
2023-04-26T00:52:45.738Z,86.88
2023-04-26T00:53:30.747Z,86.88
2023-04-26T00:54:15.770Z,86.88
2023-04-26T00:55:00.824Z,86.88
2023-04-26T00:55:45.907Z,86.88
2023-04-26T00:56:30.938Z,86.88
2023-04-26T00:57:15.942Z,86.88
2023-04-26T00:58:01.712Z,86.88
2023-04-26T00:58:46.017Z,86.88
2023-04-26T00:59:31.449Z,86.88
2023-04-26T01:00:16.594Z,86.88
2023-04-26T01:01:01.124Z,86.88
2023-04-26T01:01:45.960Z,71.64
2023-04-26T01:02:31.154Z,110.25
2023-04-26T01:03:16.434Z,110.25
2023-04-26T01:04:01.560Z,104.61
2023-04-26T01:04:45.893Z,80.15
2023-04-26T01:05:30.999Z,105.01
2023-04-26T01:06:15.962Z,105.01
2023-04-26T01:07:01.588Z,75.90
2023-04-26T01:07:46.598Z,85.21
2023-04-26T01:08:31.564Z,90.23
2023-04-26T01:09:16.635Z,90.23
2023-04-26T01:10:02.606Z,90.23
2023-04-26T01:10:46.701Z,90.23
2023-04-26T01:11:32.478Z,88.05
2023-04-26T01:12:17.540Z,81.58
2023-04-26T01:13:02.014Z,89.06
2023-04-26T01:13:46.923Z,92.45
2023-04-26T01:14:32.402Z,85.48
2023-04-26T01:15:17.410Z,90.23
2023-04-26T01:16:02.410Z,90.23
2023-04-26T01:16:47.286Z,89.39
2023-04-26T01:17:33.480Z,88.05
2023-04-26T01:18:18.295Z,83.20
2023-04-26T01:19:02.240Z,87.12
2023-04-26T01:19:47.383Z,87.72
2023-04-26T01:20:32.231Z,85.21
2023-04-26T01:21:17.104Z,87.37
2023-04-26T01:22:02.591Z,89.06
2023-04-26T01:22:47.697Z,92.45
2023-04-26T01:23:32.568Z,90.76
2023-04-26T01:24:17.722Z,87.37
2023-04-26T01:25:02.511Z,102.63
2023-04-26T01:25:47.637Z,101.74
2023-04-26T01:26:32.899Z,94.42
2023-04-26T01:27:18.051Z,97.07
2023-04-26T01:28:02.805Z,109.27
2023-04-26T01:28:47.649Z,108.36
2023-04-26T01:29:32.806Z,108.36
2023-04-26T01:30:17.963Z,180.58
2023-04-26T01:31:03.160Z,138.84
2023-04-26T01:31:48.236Z,199.24
2023-04-26T01:32:33.154Z,159.38
2023-04-26T01:33:18.361Z,198.27
2023-04-26T01:34:03.161Z,191.10
2023-04-26T01:34:48.960Z,192.16
2023-04-26T01:35:33.174Z,176.89
2023-04-26T01:36:19.147Z,176.86
2023-04-26T01:37:03.266Z,181.54
2023-04-26T01:37:48.605Z,187.31
2023-04-26T01:38:33.390Z,191.10
2023-04-26T01:39:18.790Z,187.58
2023-04-26T01:40:03.497Z,175.78
2023-04-26T01:40:48.448Z,149.32
2023-04-26T01:41:33.607Z,123.19
2023-04-26T01:42:18.977Z,144.65
2023-04-26T01:43:03.518Z,143.72
2023-04-26T01:43:48.673Z,112.00
2023-04-26T01:44:33.693Z,114.73
2023-04-26T01:45:19.441Z,122.27
2023-04-26T01:46:04.190Z,152.12
2023-04-26T01:46:49.206Z,152.12
2023-04-26T01:47:34.320Z,110.93
2023-04-26T01:48:19.651Z,96.18
2023-04-26T01:49:04.328Z,93.97
2023-04-26T01:49:49.338Z,94.98
2023-04-26T01:50:34.441Z,82.71
2023-04-26T01:51:19.512Z,82.71
2023-04-26T01:52:04.430Z,78.88
2023-04-26T01:52:49.502Z,82.59
2023-04-26T01:53:34.976Z,89.39
2023-04-26T01:54:19.909Z,87.37
2023-04-26T01:55:06.796Z,78.35
2023-04-26T01:55:49.795Z,78.35
2023-04-26T01:56:34.948Z,78.35
2023-04-26T01:57:20.035Z,78.35
2023-04-26T01:58:05.172Z,78.35
2023-04-26T01:58:50.115Z,78.35
2023-04-26T01:59:35.375Z,78.35
2023-04-26T02:00:20.719Z,78.35
2023-04-26T02:01:06.285Z,78.35
2023-04-26T02:01:50.108Z,78.35
2023-04-26T02:02:37.256Z,90.01
2023-04-26T02:03:20.654Z,132.98
2023-04-26T02:04:04.988Z,136.97
2023-04-26T02:04:50.405Z,98.83
2023-04-26T02:05:35.280Z,90.23
2023-04-26T02:06:22.631Z,90.23
2023-04-26T02:07:05.651Z,90.23
2023-04-26T02:07:50.680Z,90.23
2023-04-26T02:08:35.947Z,90.23
2023-04-26T02:09:20.944Z,90.23
2023-04-26T02:10:05.966Z,90.23
2023-04-26T02:10:50.912Z,90.23
2023-04-26T02:11:35.865Z,90.23
2023-04-26T02:12:21.073Z,90.23
2023-04-26T02:13:06.487Z,90.23
2023-04-26T02:13:52.067Z,90.23
2023-04-26T02:14:35.785Z,96.97
2023-04-26T02:15:20.856Z,102.54
2023-04-26T02:16:06.391Z,102.54
2023-04-26T02:16:51.262Z,102.54
2023-04-26T02:17:37.760Z,102.54
2023-04-26T02:18:21.274Z,67.95
2023-04-26T02:19:07.263Z,67.95
2023-04-26T02:19:50.975Z,139.65
2023-04-26T02:20:36.244Z,98.98
2023-04-26T02:21:21.096Z,133.22
2023-04-26T02:22:06.466Z,81.57
2023-04-26T02:22:52.214Z,81.57
2023-04-26T02:23:36.796Z,81.57
2023-04-26T02:24:21.793Z,81.57
2023-04-26T02:25:07.094Z,81.57
2023-04-26T02:25:51.910Z,81.57
2023-04-26T02:26:36.975Z,81.57
2023-04-26T02:27:21.849Z,81.57
2023-04-26T02:28:07.183Z,81.57
2023-04-26T02:28:52.656Z,104.29
2023-04-26T02:29:44.402Z,97.43
2023-04-26T02:30:21.654Z,119.98
2023-04-26T02:31:06.852Z,97.07
2023-04-26T02:31:52.131Z,102.36
2023-04-26T02:32:38.840Z,102.36
2023-04-26T02:33:21.890Z,102.36
2023-04-26T02:34:06.948Z,91.19
2023-04-26T02:34:51.699Z,94.15
2023-04-26T02:35:36.889Z,95.85
2023-04-26T02:36:22.111Z,95.85
2023-04-26T02:37:07.224Z,95.85
2023-04-26T02:37:52.687Z,95.85
2023-04-26T02:38:37.570Z,95.85
2023-04-26T02:39:22.573Z,95.85
2023-04-26T02:40:07.623Z,95.85
2023-04-26T02:40:52.759Z,95.85
2023-04-26T02:41:37.890Z,95.85
2023-04-26T02:42:22.875Z,95.85
2023-04-26T02:43:07.190Z,81.04
2023-04-26T02:43:52.573Z,78.29
2023-04-26T02:44:38.027Z,78.29
2023-04-26T02:45:22.283Z,78.29
2023-04-26T02:46:07.354Z,97.40
2023-04-26T02:46:52.778Z,101.01
2023-04-26T02:47:37.597Z,90.23
2023-04-26T02:48:23.729Z,90.23
2023-04-26T02:49:07.872Z,90.23
2023-04-26T02:49:52.986Z,90.23
2023-04-26T02:50:37.774Z,72.68
2023-04-26T02:51:23.544Z,72.68
2023-04-26T02:52:08.198Z,72.68
2023-04-26T02:52:53.876Z,72.68
2023-04-26T02:53:38.165Z,72.68
2023-04-26T02:54:22.754Z,85.67
2023-04-26T02:55:07.969Z,85.67
2023-04-26T02:55:53.376Z,85.67
2023-04-26T02:56:38.688Z,85.67
2023-04-26T02:57:23.486Z,85.67
2023-04-26T02:58:09.604Z,85.67
2023-04-26T02:58:53.965Z,85.67
2023-04-26T02:59:41.728Z,85.67
2023-04-26T03:00:24.829Z,85.67
2023-04-26T03:01:10.786Z,64.54
2023-04-26T03:01:53.449Z,77.43
2023-04-26T03:02:38.742Z,82.95
2023-04-26T03:03:23.945Z,83.97
2023-04-26T03:04:08.928Z,67.01
2023-04-26T03:04:53.383Z,91.03
2023-04-26T03:05:38.757Z,97.97
2023-04-26T03:06:24.690Z,97.97
2023-04-26T03:07:08.964Z,97.97
2023-04-26T03:07:54.775Z,97.97
2023-04-26T03:08:39.473Z,97.97
2023-04-26T03:09:24.447Z,97.97
2023-04-26T03:10:09.085Z,86.52
2023-04-26T03:10:54.446Z,86.52
2023-04-26T03:11:39.476Z,86.52
2023-04-26T03:12:24.857Z,86.52
2023-04-26T03:13:10.531Z,86.52
2023-04-26T03:13:54.860Z,86.52
2023-04-26T03:14:39.400Z,72.72
2023-04-26T03:15:23.958Z,74.85
2023-04-26T03:16:09.527Z,80.01
2023-04-26T03:16:55.851Z,80.01
2023-04-26T03:17:39.942Z,80.01
2023-04-26T03:18:25.014Z,80.01
2023-04-26T03:19:09.105Z,79.43
2023-04-26T03:19:54.502Z,64.11
2023-04-26T03:20:40.347Z,80.01
2023-04-26T03:21:24.678Z,82.59
2023-04-26T03:22:09.528Z,83.45
2023-04-26T03:22:55.194Z,78.29
2023-04-26T03:23:39.955Z,81.73
2023-04-26T03:24:25.122Z,75.49
2023-04-26T03:25:10.276Z,75.49
2023-04-26T03:25:55.143Z,74.90
2023-04-26T03:26:39.930Z,83.45
2023-04-26T03:27:25.348Z,84.82
2023-04-26T03:28:10.194Z,76.57
2023-04-26T03:28:55.103Z,86.48
2023-04-26T03:29:40.295Z,77.43
2023-04-26T03:30:25.067Z,89.06
2023-04-26T03:31:10.519Z,85.67
2023-04-26T03:31:55.355Z,80.20
2023-04-26T03:32:40.178Z,80.58
2023-04-26T03:33:25.278Z,80.58
2023-04-26T03:34:10.805Z,98.92
2023-04-26T03:34:55.730Z,100.23
2023-04-26T03:35:40.419Z,94.63
2023-04-26T03:36:25.462Z,97.99
2023-04-26T03:37:10.875Z,92.79
2023-04-26T03:37:57.984Z,114.28
2023-04-26T03:38:41.096Z,70.36
2023-04-26T03:39:25.689Z,98.10
2023-04-26T03:40:10.702Z,118.75
2023-04-26T03:40:55.743Z,123.97
2023-04-26T03:41:40.631Z,172.32
2023-04-26T03:42:26.180Z,172.32
2023-04-26T03:43:11.424Z,146.24
2023-04-26T03:43:55.767Z,147.21
2023-04-26T03:44:41.318Z,127.44
2023-04-26T03:45:26.080Z,103.36
2023-04-26T03:46:11.658Z,108.06
2023-04-26T03:46:56.757Z,128.39
2023-04-26T03:47:41.405Z,169.65
2023-04-26T03:48:26.618Z,178.42
2023-04-26T03:49:11.257Z,101.93
2023-04-26T03:49:56.555Z,76.95
2023-04-26T03:50:41.577Z,125.98
2023-04-26T03:51:26.342Z,100.71
2023-04-26T03:52:11.642Z,82.76
2023-04-26T03:52:56.645Z,77.98
2023-04-26T03:53:42.005Z,87.99
2023-04-26T03:54:26.554Z,181.74
2023-04-26T03:55:11.458Z,111.98
2023-04-26T03:55:56.666Z,123.98
2023-04-26T03:56:41.517Z,107.98
2023-04-26T03:57:26.776Z,167.46
2023-04-26T03:58:11.830Z,86.98
2023-04-26T03:58:57.239Z,115.98
2023-04-26T03:59:42.463Z,89.99
2023-04-26T04:00:26.932Z,107.98
2023-04-26T04:01:12.649Z,120.35
2023-04-26T04:01:57.355Z,149.32
2023-04-26T04:02:42.735Z,109.33
2023-04-26T04:03:28.130Z,69.27
2023-04-26T04:04:12.865Z,69.27
2023-04-26T04:04:57.927Z,90.95
2023-04-26T04:05:44.454Z,90.95
2023-04-26T04:06:30.222Z,90.95
2023-04-26T04:07:12.739Z,90.95
2023-04-26T04:07:58.094Z,84.38
2023-04-26T04:08:42.519Z,91.99
2023-04-26T04:09:28.309Z,99.25
2023-04-26T04:10:14.133Z,99.25
2023-04-26T04:11:00.560Z,99.25
2023-04-26T04:11:43.076Z,99.25
2023-04-26T04:12:28.079Z,99.25
2023-04-26T04:13:12.962Z,99.25
2023-04-26T04:13:57.922Z,73.84
2023-04-26T04:14:44.929Z,73.84
2023-04-26T04:15:28.163Z,80.01
2023-04-26T04:16:13.767Z,80.01
2023-04-26T04:16:58.678Z,80.01
2023-04-26T04:17:43.419Z,90.14
2023-04-26T04:18:29.018Z,177.57
2023-04-26T04:19:13.459Z,102.66
2023-04-26T04:19:58.685Z,69.81
2023-04-26T04:20:47.118Z,69.81
2023-04-26T04:21:28.898Z,69.81
2023-04-26T04:22:14.055Z,69.81
2023-04-26T04:22:58.977Z,69.81
2023-04-26T04:23:44.448Z,69.81
2023-04-26T04:24:29.012Z,69.81
2023-04-26T04:25:14.378Z,69.81
2023-04-26T04:25:59.290Z,69.81
2023-04-26T04:26:44.251Z,69.81
2023-04-26T04:27:29.048Z,85.68
2023-04-26T04:28:14.534Z,73.18
2023-04-26T04:28:59.079Z,79.73
2023-04-26T04:29:44.201Z,79.73
2023-04-26T04:30:29.185Z,65.45
2023-04-26T04:31:14.353Z,90.21
2023-04-26T04:31:59.395Z,153.90
2023-04-26T04:32:44.340Z,137.48
2023-04-26T04:33:29.280Z,110.46
2023-04-26T04:34:14.138Z,161.49
2023-04-26T04:34:59.343Z,171.96
2023-04-26T04:35:44.447Z,148.64
2023-04-26T04:36:29.966Z,141.78
2023-04-26T04:37:14.572Z,114.28
2023-04-26T04:37:59.722Z,114.28
2023-04-26T04:38:44.773Z,101.82
2023-04-26T04:39:30.246Z,110.32
2023-04-26T04:40:14.489Z,97.40
2023-04-26T04:41:00.077Z,102.71
2023-04-26T04:41:45.392Z,94.91
2023-04-26T04:42:30.608Z,93.32
2023-04-26T04:43:15.200Z,92.39
2023-04-26T04:43:59.772Z,89.12
2023-04-26T04:44:45.559Z,89.12
2023-04-26T04:45:30.523Z,82.99
2023-04-26T04:46:15.256Z,85.99
2023-04-26T04:47:00.828Z,85.99
2023-04-26T04:47:46.371Z,85.99
2023-04-26T04:48:30.819Z,85.99
2023-04-26T04:49:15.510Z,85.99
2023-04-26T04:50:01.051Z,85.99
2023-04-26T04:50:45.529Z,85.99
2023-04-26T04:51:30.949Z,85.99
2023-04-26T04:52:16.881Z,79.43
2023-04-26T04:53:00.700Z,79.43
2023-04-26T04:53:46.017Z,79.43
2023-04-26T04:54:31.229Z,79.43
2023-04-26T04:55:17.020Z,79.43
2023-04-26T04:56:01.181Z,79.43
2023-04-26T04:56:46.347Z,79.43
2023-04-26T04:57:30.893Z,88.55
2023-04-26T04:58:16.069Z,83.83
2023-04-26T04:59:01.552Z,83.83
2023-04-26T04:59:46.255Z,83.83
2023-04-26T05:00:31.363Z,83.83
2023-04-26T05:01:16.590Z,88.61
2023-04-26T05:02:01.795Z,88.61
2023-04-26T05:02:47.011Z,88.61
2023-04-26T05:03:31.732Z,88.61
2023-04-26T05:04:17.295Z,88.61
2023-04-26T05:05:02.049Z,88.61
2023-04-26T05:05:46.914Z,88.61
2023-04-26T05:06:31.993Z,88.61
2023-04-26T05:07:17.270Z,88.61
2023-04-26T05:08:02.225Z,88.61
2023-04-26T05:08:47.101Z,88.61
2023-04-26T05:09:32.507Z,88.61
2023-04-26T05:10:17.491Z,88.61
2023-04-26T05:11:02.321Z,88.61
2023-04-26T05:11:48.494Z,88.61
2023-04-26T05:12:33.864Z,88.61
2023-04-26T05:13:17.362Z,88.61
2023-04-26T05:14:02.473Z,88.61
2023-04-26T05:14:47.351Z,129.04
2023-04-26T05:15:32.761Z,129.04
2023-04-26T05:16:18.384Z,129.04
2023-04-26T05:17:02.557Z,129.04
2023-04-26T05:17:47.583Z,129.04
2023-04-26T05:18:32.705Z,129.04
2023-04-26T05:19:19.396Z,129.04
2023-04-26T05:20:02.640Z,135.89
2023-04-26T05:20:47.751Z,143.39
2023-04-26T05:21:32.800Z,138.41
2023-04-26T05:22:17.795Z,138.41
2023-04-26T05:23:03.074Z,84.28
2023-04-26T05:23:49.194Z,120.30
2023-04-26T05:24:34.691Z,120.30
2023-04-26T05:25:19.775Z,120.30
2023-04-26T05:26:03.288Z,160.64
2023-04-26T05:26:48.091Z,154.40
2023-04-26T05:27:33.054Z,153.53
2023-04-26T05:28:18.308Z,140.30
2023-04-26T05:29:03.277Z,140.30
2023-04-26T05:29:48.418Z,149.04
2023-04-26T05:30:33.988Z,143.83
2023-04-26T05:31:18.555Z,149.13
2023-04-26T05:32:03.533Z,157.53
2023-04-26T05:32:48.949Z,149.93
2023-04-26T05:33:33.396Z,156.02
2023-04-26T05:34:18.868Z,143.69
2023-04-26T05:35:03.873Z,134.21
2023-04-26T05:35:48.566Z,137.44
2023-04-26T05:36:33.821Z,146.36
2023-04-26T05:37:19.100Z,135.01
2023-04-26T05:38:04.458Z,135.01
2023-04-26T05:38:50.940Z,135.01
2023-04-26T05:39:34.316Z,135.01
2023-04-26T05:40:19.763Z,135.01
2023-04-26T05:41:04.138Z,120.61
2023-04-26T05:41:49.937Z,132.00
2023-04-26T05:42:34.479Z,111.84
2023-04-26T05:43:19.324Z,130.77
2023-04-26T05:44:04.603Z,130.77
2023-04-26T05:44:49.458Z,130.77
2023-04-26T05:45:34.743Z,130.77
2023-04-26T05:46:19.998Z,130.77
2023-04-26T05:47:04.421Z,136.56
2023-04-26T05:47:49.713Z,169.55
2023-04-26T05:48:34.416Z,169.55
2023-04-26T05:49:20.593Z,159.86
2023-04-26T05:50:04.834Z,191.95
2023-04-26T05:50:49.817Z,180.61
2023-04-26T05:51:34.923Z,158.72
2023-04-26T05:52:20.310Z,138.54
2023-04-26T05:53:05.075Z,142.07
2023-04-26T05:53:50.434Z,142.07
2023-04-26T05:54:37.022Z,132.32
2023-04-26T05:55:21.607Z,132.32
2023-04-26T05:56:07.510Z,132.32
2023-04-26T05:56:50.663Z,127.07
2023-04-26T05:57:35.333Z,127.07
2023-04-26T05:58:20.866Z,156.02
2023-04-26T05:59:05.512Z,151.72
2023-04-26T05:59:50.640Z,161.18
2023-04-26T06:00:35.485Z,180.58
2023-04-26T06:01:21.515Z,197.63
2023-04-26T06:02:05.926Z,67.06
2023-04-26T06:02:50.832Z,127.34
2023-04-26T06:03:36.431Z,105.56
2023-04-26T06:04:21.419Z,80.30
2023-04-26T06:05:06.310Z,180.61
2023-04-26T06:05:51.258Z,177.84
2023-04-26T06:06:36.194Z,171.12
2023-04-26T06:07:21.124Z,172.10
2023-04-26T06:08:06.470Z,64.36
2023-04-26T06:08:51.590Z,155.08
2023-04-26T06:09:36.509Z,207.18
2023-04-26T06:10:21.798Z,125.76
2023-04-26T06:11:06.837Z,130.30
2023-04-26T06:11:51.673Z,114.42
2023-04-26T06:12:36.645Z,107.72
2023-04-26T06:13:22.722Z,120.82
2023-04-26T06:14:10.468Z,120.82
2023-04-26T06:14:52.006Z,120.82
2023-04-26T06:15:37.071Z,120.82
2023-04-26T06:16:22.366Z,120.82
2023-04-26T06:17:07.423Z,120.82
2023-04-26T06:17:52.362Z,120.82
2023-04-26T06:18:37.285Z,120.82
2023-04-26T06:19:22.259Z,120.82
2023-04-26T06:20:07.198Z,99.06
2023-04-26T06:20:52.041Z,89.28
2023-04-26T06:21:37.360Z,90.99
2023-04-26T06:22:22.260Z,90.99
2023-04-26T06:23:07.693Z,101.98
2023-04-26T06:23:53.432Z,82.90
2023-04-26T06:24:37.532Z,82.90
2023-04-26T06:25:22.915Z,82.90
2023-04-26T06:26:07.588Z,82.90
2023-04-26T06:26:53.232Z,82.90
2023-04-26T06:27:37.553Z,82.90
2023-04-26T06:28:22.722Z,102.36
2023-04-26T06:29:09.658Z,75.19
2023-04-26T06:29:53.237Z,103.71
2023-04-26T06:30:37.934Z,95.30
2023-04-26T06:31:23.538Z,95.30
2023-04-26T06:32:08.522Z,95.30
2023-04-26T06:32:53.597Z,95.30
2023-04-26T06:33:38.209Z,95.30
2023-04-26T06:34:23.182Z,89.06
2023-04-26T06:35:07.823Z,87.48
2023-04-26T06:35:53.281Z,87.48
2023-04-26T06:36:38.134Z,117.99
2023-04-26T06:37:23.498Z,103.24
2023-04-26T06:38:08.065Z,97.95
2023-04-26T06:38:53.399Z,124.99
2023-04-26T06:39:40.049Z,124.99
2023-04-26T06:40:24.058Z,100.99
2023-04-26T06:41:08.549Z,118.99
2023-04-26T06:41:54.426Z,128.99
2023-04-26T06:42:38.806Z,97.99
2023-04-26T06:43:26.218Z,67.92
2023-04-26T06:44:09.002Z,79.43
2023-04-26T06:44:53.855Z,83.97
2023-04-26T06:45:40.502Z,138.99
2023-04-26T06:46:23.870Z,80.32
2023-04-26T06:47:09.038Z,101.99
2023-04-26T06:47:53.737Z,115.99
2023-04-26T06:48:39.153Z,145.99
2023-04-26T06:49:25.634Z,145.99
2023-04-26T06:50:09.111Z,145.99
2023-04-26T06:50:54.425Z,145.99
2023-04-26T06:51:39.493Z,145.99
2023-04-26T06:52:24.730Z,145.99
2023-04-26T06:53:08.988Z,171.34
2023-04-26T06:53:55.094Z,124.99
2023-04-26T06:54:46.344Z,104.99
2023-04-26T06:55:24.257Z,129.98
2023-04-26T06:56:09.615Z,133.98
2023-04-26T06:56:54.663Z,135.98
2023-04-26T06:57:39.303Z,129.98
2023-04-26T06:58:24.879Z,144.99
2023-04-26T06:59:09.953Z,125.98
2023-04-26T06:59:55.314Z,131.99
2023-04-26T07:00:39.861Z,126.99
2023-04-26T07:01:25.227Z,141.99
2023-04-26T07:02:09.875Z,130.98
2023-04-26T07:02:55.289Z,123.98
2023-04-26T07:03:40.831Z,138.98
2023-04-26T07:04:25.336Z,140.99
2023-04-26T07:05:10.614Z,118.99
2023-04-26T07:05:55.994Z,141.99
2023-04-26T07:06:39.994Z,88.99
2023-04-26T07:07:25.526Z,123.99
2023-04-26T07:08:10.522Z,111.99
2023-04-26T07:08:55.486Z,87.99
2023-04-26T07:09:40.433Z,76.99
2023-04-26T07:10:25.187Z,59.99
2023-04-26T07:11:10.851Z,59.99
2023-04-26T07:11:56.126Z,59.99
2023-04-26T07:12:40.950Z,73.99
2023-04-26T07:13:26.079Z,73.99
2023-04-26T07:14:10.770Z,128.99
2023-04-26T07:14:55.515Z,160.98
2023-04-26T07:15:41.412Z,159.98
2023-04-26T07:16:25.981Z,146.98
2023-04-26T07:17:11.085Z,162.98
2023-04-26T07:17:55.965Z,146.98
2023-04-26T07:18:40.890Z,164.98
2023-04-26T07:19:26.046Z,164.98
2023-04-26T07:20:10.704Z,164.97
2023-04-26T07:20:55.969Z,160.98
2023-04-26T07:21:41.161Z,164.98
2023-04-26T07:22:26.169Z,162.98
2023-04-26T07:23:11.133Z,146.98
2023-04-26T07:23:56.177Z,121.65
2023-04-26T07:24:41.661Z,166.96
2023-04-26T07:25:26.250Z,168.97
2023-04-26T07:26:11.870Z,167.98
2023-04-26T07:26:57.093Z,160.98
2023-04-26T07:27:41.467Z,161.98
2023-04-26T07:28:26.652Z,158.96
2023-04-26T07:29:11.680Z,162.98
2023-04-26T07:29:56.733Z,154.98
2023-04-26T07:30:41.832Z,156.98
2023-04-26T07:31:27.040Z,136.97
2023-04-26T07:32:12.090Z,131.99
2023-04-26T07:32:57.151Z,124.87
2023-04-26T07:33:42.052Z,101.99
2023-04-26T07:34:27.357Z,141.99
2023-04-26T07:35:12.150Z,141.99
2023-04-26T07:35:57.503Z,152.99
2023-04-26T07:36:41.853Z,145.99
2023-04-26T07:37:27.223Z,160.98
2023-04-26T07:38:12.421Z,139.99
2023-04-26T07:38:57.304Z,154.99
2023-04-26T07:39:42.293Z,153.99
2023-04-26T07:40:27.190Z,144.99
2023-04-26T07:41:12.489Z,152.99
2023-04-26T07:41:57.329Z,170.98
2023-04-26T07:42:42.712Z,175.98
2023-04-26T07:43:27.456Z,164.98
2023-04-26T07:44:12.297Z,154.98
2023-04-26T07:44:57.702Z,154.98
2023-04-26T07:45:43.006Z,158.99
2023-04-26T07:46:27.987Z,130.99
2023-04-26T07:47:12.523Z,131.98
2023-04-26T07:47:58.234Z,162.98
2023-04-26T07:48:43.155Z,145.98
2023-04-26T07:49:27.837Z,149.97
2023-04-26T07:50:13.165Z,147.98
2023-04-26T07:50:58.214Z,147.98
2023-04-26T07:51:43.286Z,153.98
2023-04-26T07:52:28.445Z,147.98
2023-04-26T07:53:14.037Z,162.98
2023-04-26T07:53:58.700Z,144.98
2023-04-26T07:54:43.591Z,143.98
2023-04-26T07:55:28.633Z,154.97
2023-04-26T07:56:13.882Z,141.97
2023-04-26T07:56:58.565Z,142.97
2023-04-26T07:57:43.992Z,152.97
2023-04-26T07:58:28.789Z,149.97
2023-04-26T07:59:13.531Z,153.97
2023-04-26T07:59:58.782Z,155.97
2023-04-26T08:00:44.153Z,155.97
2023-04-26T08:01:28.799Z,141.96
2023-04-26T08:02:14.406Z,170.97
2023-04-26T08:02:59.554Z,148.96
2023-04-26T08:03:44.667Z,155.97
2023-04-26T08:04:29.698Z,157.98
2023-04-26T08:05:14.514Z,159.98
2023-04-26T08:05:59.874Z,166.98
2023-04-26T08:06:44.450Z,159.97
2023-04-26T08:07:29.446Z,164.97
2023-04-26T08:08:15.420Z,164.97
2023-04-26T08:08:59.591Z,173.97
2023-04-26T08:09:44.519Z,160.95
2023-04-26T08:10:30.038Z,160.95
2023-04-26T08:11:14.846Z,162.97
2023-04-26T08:12:00.251Z,85.21
2023-04-26T08:12:44.664Z,158.97
2023-04-26T08:13:29.814Z,151.96
2023-04-26T08:14:14.836Z,165.97
2023-04-26T08:14:59.718Z,159.96
2023-04-26T08:15:44.968Z,96.05
2023-04-26T08:16:30.349Z,170.97
2023-04-26T08:17:15.034Z,159.97
2023-04-26T08:18:00.115Z,165.97
2023-04-26T08:18:46.838Z,152.97
2023-04-26T08:19:29.848Z,169.97
2023-04-26T08:20:14.699Z,169.97
2023-04-26T08:20:59.877Z,161.97
2023-04-26T08:21:45.039Z,162.95
2023-04-26T08:22:30.270Z,176.97
2023-04-26T08:23:15.143Z,166.97
2023-04-26T08:24:00.011Z,140.97
2023-04-26T08:24:45.128Z,102.98
2023-04-26T08:25:30.089Z,141.97
2023-04-26T08:26:15.251Z,139.97
2023-04-26T08:27:00.299Z,167.97
2023-04-26T08:27:45.518Z,135.97
2023-04-26T08:28:30.528Z,188.13
2023-04-26T08:29:15.180Z,129.98
2023-04-26T08:30:00.431Z,138.98
2023-04-26T08:30:45.528Z,137.98
2023-04-26T08:31:30.880Z,144.98
2023-04-26T08:32:15.593Z,147.98
2023-04-26T08:33:00.789Z,132.98
2023-04-26T08:33:45.818Z,147.98
2023-04-26T08:34:31.440Z,145.98
2023-04-26T08:35:15.931Z,158.97
2023-04-26T08:36:00.986Z,119.97
2023-04-26T08:36:46.609Z,138.98
2023-04-26T08:37:30.993Z,144.98
2023-04-26T08:38:17.283Z,147.97
2023-04-26T08:39:01.715Z,168.97
2023-04-26T08:39:46.470Z,169.97
2023-04-26T08:40:31.349Z,173.97
2023-04-26T08:41:16.579Z,172.97
2023-04-26T08:42:01.431Z,185.97
2023-04-26T08:42:46.446Z,182.97
2023-04-26T08:43:31.658Z,167.97
2023-04-26T08:44:16.899Z,169.97
2023-04-26T08:45:01.670Z,193.97
2023-04-26T08:45:46.444Z,162.98
2023-04-26T08:46:31.956Z,160.98
2023-04-26T08:47:17.319Z,175.97
2023-04-26T08:48:03.238Z,166.98
2023-04-26T08:48:46.946Z,183.97
2023-04-26T08:49:32.136Z,183.97
2023-04-26T08:50:17.300Z,173.97
2023-04-26T08:51:02.024Z,184.97
2023-04-26T08:51:47.204Z,188.97
2023-04-26T08:52:32.536Z,187.97
2023-04-26T08:53:17.338Z,176.97
2023-04-26T08:54:03.433Z,186.97
2023-04-26T08:54:47.072Z,187.96
2023-04-26T08:55:32.347Z,129.55
2023-04-26T08:56:17.945Z,186.97
2023-04-26T08:57:02.462Z,184.97
2023-04-26T08:57:47.414Z,183.97
2023-04-26T08:58:32.673Z,125.51
2023-04-26T08:59:17.737Z,155.98
2023-04-26T09:00:02.686Z,155.98
2023-04-26T09:00:47.592Z,141.51
2023-04-26T09:01:32.640Z,187.98
2023-04-26T09:02:18.251Z,175.98
2023-04-26T09:03:03.108Z,163.98
2023-04-26T09:03:47.921Z,190.98
2023-04-26T09:04:33.229Z,185.98
2023-04-26T09:05:18.212Z,187.98
2023-04-26T09:06:04.517Z,192.98
2023-04-26T09:06:48.118Z,193.98
2023-04-26T09:07:33.150Z,164.98
2023-04-26T09:08:18.239Z,190.96
2023-04-26T09:09:02.989Z,174.98
2023-04-26T09:09:48.883Z,178.98
2023-04-26T09:10:33.384Z,178.98
2023-04-26T09:11:18.189Z,171.98
2023-04-26T09:12:03.394Z,171.98
2023-04-26T09:12:48.235Z,178.98
2023-04-26T09:13:33.211Z,176.98
2023-04-26T09:14:18.802Z,186.98
2023-04-26T09:15:03.452Z,176.98
2023-04-26T09:15:49.007Z,195.98
2023-04-26T09:16:33.563Z,170.98
2023-04-26T09:17:18.953Z,176.98
2023-04-26T09:18:03.806Z,184.98
2023-04-26T09:18:48.891Z,176.98
2023-04-26T09:19:34.389Z,168.98
2023-04-26T09:20:19.284Z,168.98
2023-04-26T09:21:04.194Z,174.98
2023-04-26T09:21:48.872Z,179.98
2023-04-26T09:22:34.074Z,92.99
2023-04-26T09:23:19.140Z,177.98
2023-04-26T09:24:03.952Z,186.98
2023-04-26T09:24:49.318Z,170.98
2023-04-26T09:25:34.513Z,179.98
2023-04-26T09:26:19.655Z,188.98
2023-04-26T09:27:04.618Z,176.97
2023-04-26T09:27:49.377Z,172.98
2023-04-26T09:28:34.625Z,162.98
2023-04-26T09:29:19.782Z,166.98